Time;durP1;ratioP1;P1;durP2;ratioP2;P2;SDS_P1;SDS_P2;PMS_P1;PMS_P2;Temp;Humidity;BMP_temperature;BMP_pressure;BME280_temperature;BME280_humidity;BME280_pressure;Samples;Min_cycle;Max_cycle;Signal;HPM_P1;HPM_P2
2023/04/25 04:01:19;;;;;;;2.17;1.42;;;7.10;99.90;;;;;;5582002;23;20377;-76
2023/04/25 04:03:46;;;;;;;1.92;0.80;;;7.10;99.90;;;;;;5012542;28;20207;-74
2023/04/25 04:06:13;;;;;;;34.65;1.88;;;7.00;99.90;;;;;;5014006;28;20206;-75
2023/04/25 04:08:40;;;;;;;1.15;1.00;;;6.90;99.90;;;;;;5013866;28;20261;-75
2023/04/25 04:11:06;;;;;;;1.00;1.00;;;6.90;99.90;;;;;;5014417;28;20230;-75
2023/04/25 04:13:33;;;;;;;3.22;0.60;;;6.90;99.90;;;;;;5037239;23;20231;-73
2023/04/25 04:16:00;;;;;;;1.63;0.82;;;6.80;99.90;;;;;;5014544;28;20325;-73
2023/04/25 04:18:28;;;;;;;1.05;1.05;;;6.80;99.90;;;;;;5015031;28;20210;-73
2023/04/25 04:20:55;;;;;;;6.28;2.38;;;6.80;99.90;;;;;;5016483;28;20207;-73
2023/04/25 04:23:22;;;;;;;3.95;3.65;;;6.70;99.90;;;;;;5016184;28;20549;-73
2023/04/25 04:25:49;;;;;;;7.38;1.83;;;6.70;99.90;;;;;;5016889;28;20662;-74
2023/04/25 04:28:16;;;;;;;0.32;0.32;;;6.70;99.90;;;;;;5016295;28;20244;-73
2023/04/25 04:30:46;;;;;;;0.93;0.93;;;6.70;99.90;;;;;;5014942;28;20725;-73
2023/04/25 04:33:14;;;;;;;0.65;0.65;;;6.70;99.90;;;;;;5016074;28;20245;-74
2023/04/25 04:35:43;;;;;;;3.45;1.75;;;6.70;99.90;;;;;;5023036;28;20258;-74
2023/04/25 04:38:11;;;;;;;1.50;1.40;;;6.70;99.90;;;;;;5025985;28;20223;-74
2023/04/25 04:40:38;;;;;;;2.47;1.35;;;6.70;99.90;;;;;;5026284;28;20250;-71
2023/04/25 04:43:05;;;;;;;1.98;1.85;;;6.70;99.90;;;;;;5026222;28;20772;-71
2023/04/25 04:45:32;;;;;;;1.67;1.67;;;6.80;99.90;;;;;;5017110;28;20679;-72
2023/04/25 04:47:59;;;;;;;9.43;1.58;;;6.80;99.90;;;;;;5017604;28;20207;-72
2023/04/25 04:50:26;;;;;;;1.42;1.42;;;6.90;99.90;;;;;;5014626;28;20470;-73
2023/04/25 04:52:55;;;;;;;9.82;2.13;;;7.20;99.90;;;;;;5013525;28;20266;-73
2023/04/25 04:55:22;;;;;;;17.65;2.78;;;7.40;99.90;;;;;;5013298;28;20207;-74
2023/04/25 04:57:48;;;;;;;4.68;3.33;;;7.50;99.90;;;;;;5012707;28;20211;-73
2023/04/25 05:00:16;;;;;;;2.17;1.33;;;7.60;99.90;;;;;;5014793;28;20211;-73
2023/04/25 05:02:43;;;;;;;2.45;0.98;;;7.50;99.90;;;;;;5020506;28;20234;-73
2023/04/25 05:05:10;;;;;;;2.58;2.05;;;7.50;99.90;;;;;;5019673;28;20229;-74
2023/04/25 05:07:37;;;;;;;0.70;0.70;;;7.50;99.90;;;;;;5016847;28;20203;-73
2023/04/25 05:10:06;;;;;;;1.48;1.40;;;7.50;99.90;;;;;;5020046;28;20218;-73
2023/04/25 05:12:33;;;;;;;0.90;0.50;;;7.60;99.90;;;;;;5014776;28;20203;-73
2023/04/25 05:15:00;;;;;;;7.72;1.88;;;7.70;99.90;;;;;;5014094;28;20211;-73
2023/04/25 05:17:26;;;;;;;4.25;0.75;;;7.80;99.90;;;;;;5013949;28;20761;-73
2023/04/25 05:19:53;;;;;;;10.20;2.08;;;7.80;99.90;;;;;;5015551;28;20203;-73
2023/04/25 05:22:20;;;;;;;5.03;1.20;;;7.90;99.90;;;;;;5014730;28;20215;-74
2023/04/25 05:24:48;;;;;;;2.20;2.10;;;8.00;99.90;;;;;;5013716;28;20223;-73
2023/04/25 05:27:17;;;;;;;0.80;0.80;;;8.00;99.90;;;;;;5014528;28;20225;-74
2023/04/25 05:29:44;;;;;;;0.73;0.73;;;8.10;99.90;;;;;;5014498;28;20199;-74
2023/04/25 05:32:11;;;;;;;1.58;1.50;;;8.10;99.90;;;;;;5014553;28;20754;-74
2023/04/25 05:34:38;;;;;;;5.68;1.45;;;8.10;99.90;;;;;;5014269;28;20242;-74
2023/04/25 05:37:04;;;;;;;4.38;1.98;;;8.10;99.90;;;;;;5015250;28;20318;-74
2023/04/25 05:39:31;;;;;;;0.88;0.88;;;8.10;99.90;;;;;;5014830;28;20213;-74
2023/04/25 05:41:58;;;;;;;2.83;1.05;;;8.20;99.90;;;;;;5015090;28;20207;-74
2023/04/25 05:44:26;;;;;;;1.60;1.30;;;8.30;99.90;;;;;;5013703;28;20291;-74
2023/04/25 05:46:53;;;;;;;3.70;0.82;;;8.40;99.90;;;;;;5015266;28;20453;-74
2023/04/25 05:49:19;;;;;;;2.58;1.00;;;8.50;99.90;;;;;;5015028;28;20222;-74
2023/04/25 05:51:46;;;;;;;4.32;1.42;;;8.50;99.90;;;;;;5014063;28;20207;-74
2023/04/25 05:54:13;;;;;;;1.15;1.13;;;8.50;99.90;;;;;;5012488;28;20291;-74
2023/04/25 05:56:40;;;;;;;7.63;2.33;;;8.40;99.90;;;;;;5013317;28;20227;-75
2023/04/25 05:59:06;;;;;;;1.42;1.33;;;8.40;99.90;;;;;;5012979;28;20627;-74
2023/04/25 06:01:35;;;;;;;1.20;1.10;;;8.30;99.90;;;;;;5013145;28;20218;-74
2023/04/25 06:04:01;;;;;;;3.83;0.68;;;8.30;99.90;;;;;;5012454;28;20258;-74
2023/04/25 06:06:28;;;;;;;10.35;1.90;;;8.40;99.90;;;;;;5012717;28;20203;-74
2023/04/25 06:08:55;;;;;;;1.65;0.90;;;8.40;99.90;;;;;;5011999;28;20579;-74
2023/04/25 06:11:22;;;;;;;1.48;1.20;;;8.40;99.90;;;;;;5012682;28;20207;-74
2023/04/25 06:13:49;;;;;;;3.67;1.35;;;8.40;99.90;;;;;;5012049;28;20247;-74
2023/04/25 06:16:15;;;;;;;24.73;10.52;;;8.30;99.90;;;;;;5012125;28;20434;-74
2023/04/25 06:18:44;;;;;;;0.55;0.55;;;8.30;99.90;;;;;;5012032;28;20517;-74
2023/04/25 06:21:10;;;;;;;1.02;1.02;;;8.10;99.90;;;;;;5012369;28;20736;-74
2023/04/25 06:23:37;;;;;;;0.77;0.77;;;8.10;99.90;;;;;;5011066;28;20231;-74
2023/04/25 06:26:04;;;;;;;0.75;0.75;;;8.10;99.90;;;;;;5011859;28;20520;-74
2023/04/25 06:28:31;;;;;;;11.45;1.60;;;8.10;99.90;;;;;;5011150;28;20213;-74
2023/04/25 06:30:58;;;;;;;4.72;2.10;;;8.10;99.90;;;;;;5011971;28;20325;-74
2023/04/25 06:33:25;;;;;;;1.33;0.45;;;8.20;99.90;;;;;;5011505;28;20227;-74
2023/04/25 06:35:53;;;;;;;0.30;0.30;;;8.20;99.90;;;;;;5011479;28;20257;-75
2023/04/25 06:38:20;;;;;;;4.07;1.08;;;8.20;99.90;;;;;;5011264;28;20215;-74
2023/04/25 06:40:47;;;;;;;1.27;1.27;;;8.20;99.90;;;;;;5011723;28;20207;-74
2023/04/25 06:43:13;;;;;;;1.55;1.45;;;8.40;99.90;;;;;;5011356;28;20242;-75
2023/04/25 06:45:40;;;;;;;1.05;0.85;;;8.40;99.90;;;;;;5011430;28;20218;-74
2023/04/25 06:48:07;;;;;;;1.90;1.17;;;8.50;99.90;;;;;;5011597;28;20211;-74
2023/04/25 06:50:34;;;;;;;0.75;0.75;;;8.60;99.90;;;;;;5012032;28;20207;-74
2023/04/25 06:53:02;;;;;;;3.10;1.25;;;8.70;99.90;;;;;;5010666;28;20295;-74
2023/04/25 06:55:30;;;;;;;0.65;0.60;;;8.70;99.90;;;;;;5010941;28;20738;-74
2023/04/25 06:57:56;;;;;;;1.10;1.10;;;8.80;99.90;;;;;;5011300;28;20325;-73
2023/04/25 07:00:23;;;;;;;10.38;1.40;;;8.90;99.90;;;;;;5011421;28;20199;-74
2023/04/25 07:02:51;;;;;;;1.73;0.85;;;8.90;99.90;;;;;;5011197;28;20553;-73
2023/04/25 07:05:17;;;;;;;1.30;1.15;;;9.00;99.90;;;;;;5010845;28;20588;-74
2023/04/25 07:07:44;;;;;;;1.67;1.23;;;9.10;99.90;;;;;;5010223;28;20203;-74
2023/04/25 07:10:12;;;;;;;4.28;1.10;;;9.10;99.90;;;;;;5011029;28;20223;-73
2023/04/25 07:12:39;;;;;;;7.63;1.45;;;9.10;99.90;;;;;;5010977;28;20249;-74
2023/04/25 07:15:09;;;;;;;8.88;1.38;;;9.00;99.90;;;;;;5010693;28;20230;-74
2023/04/25 07:17:36;;;;;;;1.00;0.47;;;9.00;99.90;;;;;;5010907;28;20664;-74
2023/04/25 07:20:04;;;;;;;3.63;0.85;;;9.00;99.90;;;;;;5010207;28;20222;-74
2023/04/25 07:22:31;;;;;;;3.83;1.85;;;8.90;99.90;;;;;;5009964;28;20714;-73
2023/04/25 07:24:58;;;;;;;2.25;0.40;;;8.80;99.90;;;;;;5010461;28;20223;-74
2023/04/25 07:27:26;;;;;;;1.15;0.98;;;8.70;99.90;;;;;;5010928;28;20202;-74
2023/04/25 07:29:53;;;;;;;1.33;1.25;;;8.70;99.90;;;;;;5010478;28;20207;-73
2023/04/25 07:32:20;;;;;;;0.57;0.30;;;8.70;99.90;;;;;;5010663;28;20589;-74
2023/04/25 07:34:47;;;;;;;2.45;0.88;;;8.80;99.90;;;;;;5010319;28;20553;-74
2023/04/25 07:37:15;;;;;;;7.82;1.42;;;8.80;99.90;;;;;;5010044;28;20223;-72
2023/04/25 07:39:42;;;;;;;0.30;0.30;;;8.80;99.90;;;;;;5010139;28;20278;-73
2023/04/25 07:42:10;;;;;;;0.63;0.63;;;8.90;99.90;;;;;;5010782;28;20211;-74
2023/04/25 07:44:39;;;;;;;0.55;0.55;;;9.00;99.90;;;;;;5010132;28;20281;-74
2023/04/25 07:47:07;;;;;;;7.97;1.00;;;9.10;99.90;;;;;;5010628;28;20341;-73
2023/04/25 07:49:35;;;;;;;0.50;0.50;;;9.30;99.90;;;;;;5010395;28;20620;-74
2023/04/25 07:52:02;;;;;;;0.68;0.68;;;9.50;99.90;;;;;;5010133;28;20211;-73
2023/04/25 07:54:29;;;;;;;0.85;0.60;;;9.50;99.90;;;;;;5009589;28;20227;-74
2023/04/25 07:56:56;;;;;;;0.50;0.50;;;9.40;99.90;;;;;;5010172;28;20527;-73
2023/04/25 07:59:23;;;;;;;3.08;0.70;;;9.40;99.90;;;;;;5010525;28;20211;-74
2023/04/25 08:01:51;;;;;;;0.80;0.80;;;9.60;99.90;;;;;;5010501;28;20207;-74
2023/04/25 08:04:18;;;;;;;1.40;1.30;;;9.50;99.90;;;;;;5009723;28;20490;-74
2023/04/25 08:06:45;;;;;;;4.97;1.20;;;9.50;99.90;;;;;;5011358;28;20207;-74
2023/04/25 08:09:12;;;;;;;1.20;0.75;;;9.70;99.90;;;;;;5010465;28;20211;-74
2023/04/25 08:11:39;;;;;;;2.67;0.80;;;9.80;99.90;;;;;;5010784;28;20314;-74
2023/04/25 08:14:06;;;;;;;1.38;0.60;;;9.70;99.90;;;;;;5009896;28;20672;-74
2023/04/25 08:16:33;;;;;;;1.42;1.15;;;9.80;99.90;;;;;;5010472;28;20259;-74
2023/04/25 08:19:02;;;;;;;0.95;0.52;;;10.00;99.90;;;;;;5010600;28;20294;-73
2023/04/25 08:21:28;;;;;;;6.53;1.05;;;10.20;99.90;;;;;;5009779;28;20289;-73
2023/04/25 08:23:55;;;;;;;1.65;0.52;;;10.20;99.90;;;;;;5009096;28;20231;-73
2023/04/25 08:26:22;;;;;;;0.33;0.33;;;10.20;99.90;;;;;;5009980;28;20227;-73
2023/04/25 08:28:49;;;;;;;1.67;0.55;;;10.20;99.90;;;;;;5009226;28;20594;-73
2023/04/25 08:31:16;;;;;;;0.63;0.50;;;10.20;99.90;;;;;;5011459;28;20203;-73
2023/04/25 08:33:43;;;;;;;4.00;0.40;;;10.20;99.90;;;;;;5013557;28;20238;-73
2023/04/25 08:36:11;;;;;;;4.30;0.77;;;10.20;99.90;;;;;;5013089;28;20225;-73
2023/04/25 08:38:38;;;;;;;0.45;0.45;;;10.30;99.90;;;;;;5013153;28;20231;-73
2023/04/25 08:41:07;;;;;;;4.68;0.80;;;10.50;99.90;;;;;;5013518;28;20203;-73
2023/04/25 08:43:36;;;;;;;2.63;0.52;;;10.60;99.90;;;;;;5012837;28;20235;-74
2023/04/25 08:46:03;;;;;;;1.23;0.83;;;10.80;99.90;;;;;;5013125;28;20624;-72
2023/04/25 08:48:34;;;;;;;0.50;0.50;;;10.90;99.90;;;;;;5013344;28;20469;-73
2023/04/25 08:51:03;;;;;;;1.23;1.03;;;10.90;99.90;;;;;;5012893;28;20958;-73
2023/04/25 08:53:33;;;;;;;0.77;0.70;;;11.00;99.90;;;;;;5012544;28;20489;-73
2023/04/25 08:56:02;;;;;;;3.40;0.57;;;11.00;99.90;;;;;;5013311;28;20476;-73
2023/04/25 08:58:29;;;;;;;10.33;1.27;;;11.00;99.90;;;;;;5012980;28;20536;-73
2023/04/25 09:00:56;;;;;;;4.00;1.23;;;11.10;99.90;;;;;;5012774;28;20470;-73
2023/04/25 09:03:23;;;;;;;0.47;0.47;;;10.90;99.90;;;;;;5012162;28;20493;-72
2023/04/25 09:05:50;;;;;;;4.03;1.48;;;10.70;99.90;;;;;;5012987;28;20808;-73
2023/04/25 09:08:17;;;;;;;0.20;0.20;;;10.70;99.90;;;;;;5012295;28;20219;-73
2023/04/25 09:10:45;;;;;;;1.13;0.65;;;10.70;99.90;;;;;;5012816;28;20540;-73
2023/04/25 09:13:14;;;;;;;7.27;1.30;;;10.80;99.90;;;;;;5012659;28;20622;-73
2023/04/25 09:15:49;;;;;;;1.15;0.63;;;10.80;99.90;;;;;;5012987;28;20556;-73
2023/04/25 09:18:25;;;;;;;0.50;0.50;;;10.80;99.90;;;;;;5012376;28;20227;-73
2023/04/25 09:20:53;;;;;;;3.28;1.77;;;10.80;99.90;;;;;;5012341;28;20264;-73
2023/04/25 09:23:21;;;;;;;3.07;1.33;;;10.90;99.90;;;;;;5011578;28;20227;-72
2023/04/25 09:25:51;;;;;;;2.83;1.58;;;10.80;99.90;;;;;;5012816;28;20473;-72
2023/04/25 09:28:24;;;;;;;3.88;1.50;;;10.70;99.90;;;;;;5012451;28;20757;-73
2023/04/25 09:30:56;;;;;;;2.20;0.98;;;10.70;99.90;;;;;;5012144;28;20203;-72
2023/04/25 09:33:29;;;;;;;1.77;0.90;;;10.70;99.90;;;;;;5012089;28;20227;-73
2023/04/25 09:36:03;;;;;;;0.30;0.30;;;10.70;99.90;;;;;;5012416;28;20293;-72
2023/04/25 09:38:31;;;;;;;0.60;0.60;;;10.70;99.90;;;;;;5012491;28;20751;-72
2023/04/25 09:41:00;;;;;;;1.48;1.48;;;10.50;99.90;;;;;;5012684;28;20390;-72
2023/04/25 09:43:27;;;;;;;0.20;0.20;;;10.40;99.90;;;;;;5010559;28;20259;-73
2023/04/25 09:45:57;;;;;;;0.30;0.30;;;10.50;99.90;;;;;;5012013;28;20222;-73
2023/04/25 09:48:25;;;;;;;12.90;1.38;;;10.70;99.90;;;;;;5011455;28;20473;-73
2023/04/25 09:51:06;;;;;;;1.75;1.15;;;10.80;99.90;;;;;;5011239;28;20302;-74
2023/04/25 09:53:33;;;;;;;3.03;0.50;;;10.80;99.90;;;;;;5010805;28;20246;-73
2023/04/25 09:56:03;;;;;;;0.20;0.20;;;10.70;99.90;;;;;;5011799;28;20203;-73
2023/04/25 09:58:31;;;;;;;0.95;0.60;;;10.40;99.90;;;;;;5011579;28;20223;-73
2023/04/25 10:01:01;;;;;;;0.45;0.45;;;10.20;99.90;;;;;;5011589;28;20207;-73
2023/04/25 10:03:31;;;;;;;0.20;0.20;;;9.90;99.90;;;;;;5011793;28;20298;-74
2023/04/25 10:06:00;;;;;;;0.30;0.30;;;9.60;99.90;;;;;;5011215;28;20266;-74
2023/04/25 10:08:32;;;;;;;1.00;1.00;;;9.40;99.90;;;;;;5010932;28;20294;-73
2023/04/25 10:11:02;;;;;;;15.00;2.05;;;9.10;99.90;;;;;;5011219;28;20345;-73
2023/04/25 10:13:30;;;;;;;0.63;0.63;;;9.00;99.90;;;;;;5034062;23;20238;-75
2023/04/25 10:15:58;;;;;;;0.32;0.32;;;9.00;99.90;;;;;;5012544;28;20287;-75
2023/04/25 10:18:26;;;;;;;0.47;0.47;;;9.10;99.90;;;;;;5012743;28;20242;-74
2023/04/25 10:20:54;;;;;;;0.30;0.30;;;9.10;99.90;;;;;;5012125;28;20203;-75
2023/04/25 10:23:21;;;;;;;0.20;0.20;;;9.20;99.90;;;;;;5011628;28;20227;-75
2023/04/25 10:25:48;;;;;;;0.30;0.30;;;9.30;99.90;;;;;;5012528;28;20207;-74
2023/04/25 10:28:16;;;;;;;0.10;0.10;;;9.40;99.90;;;;;;5012039;28;20207;-75
2023/04/25 10:30:58;;;;;;;0.20;0.20;;;9.60;99.90;;;;;;5004078;28;20201;-76
2023/04/25 10:33:33;;;;;;;0.30;0.30;;;9.90;99.90;;;;;;5011407;28;20654;-75
2023/04/25 10:36:08;;;;;;;0.30;0.30;;;10.00;99.90;;;;;;5011522;28;20207;-75
2023/04/25 10:38:36;;;;;;;0.32;0.32;;;9.90;99.90;;;;;;5011667;28;20245;-74
2023/04/25 10:41:08;;;;;;;0.25;0.25;;;9.90;99.90;;;;;;5012047;28;20207;-75
2023/04/25 10:43:38;;;;;;;0.43;0.43;;;10.00;99.90;;;;;;5011757;28;20231;-75
2023/04/25 10:46:19;;;;;;;1.55;0.95;;;10.00;99.90;;;;;;5012362;28;20587;-76
2023/04/25 10:48:48;;;;;;;5.88;0.50;;;10.10;99.90;;;;;;5011995;28;20207;-75
2023/04/25 10:51:21;;;;;;;0.70;0.55;;;10.20;99.90;;;;;;5011948;28;20269;-75
2023/04/25 10:53:58;;;;;;;0.95;0.95;;;10.20;99.90;;;;;;5011237;28;20227;-76
2023/04/25 10:56:27;;;;;;;2.25;0.85;;;10.20;99.90;;;;;;5011399;28;20195;-76
2023/04/25 10:59:05;;;;;;;1.70;1.60;;;10.10;99.90;;;;;;5012051;28;20234;-75
2023/04/25 11:01:37;;;;;;;1.88;1.25;;;10.20;99.90;;;;;;5012050;28;20210;-75
2023/04/25 11:04:04;;;;;;;1.23;0.68;;;10.20;99.90;;;;;;5011247;28;20243;-75
2023/04/25 11:06:38;;;;;;;0.93;0.60;;;10.20;99.90;;;;;;5011612;28;20215;-75
2023/04/25 11:09:13;;;;;;;1.48;1.00;;;10.20;99.90;;;;;;5012816;28;20230;-76
2023/04/25 11:11:39;;;;;;;0.55;0.55;;;10.20;99.90;;;;;;5013021;28;20238;-77
2023/04/25 11:14:07;;;;;;;1.48;0.95;;;10.30;99.90;;;;;;5012353;28;20249;-74
2023/04/25 11:16:36;;;;;;;1.85;0.70;;;10.40;99.90;;;;;;5012027;28;20288;-75
2023/04/25 11:19:02;;;;;;;4.03;0.75;;;10.70;99.90;;;;;;5011814;28;20231;-74
2023/04/25 11:21:31;;;;;;;1.27;0.82;;;10.80;99.90;;;;;;5011648;28;20226;-75
2023/04/25 11:23:58;;;;;;;1.63;0.88;;;11.10;99.90;;;;;;5011225;28;20231;-75
2023/04/25 11:26:25;;;;;;;0.47;0.47;;;11.20;99.90;;;;;;5012152;28;20214;-75
2023/04/25 11:28:52;;;;;;;0.45;0.45;;;11.20;99.90;;;;;;5011542;28;20195;-74
2023/04/25 11:31:22;;;;;;;1.90;0.75;;;11.20;99.90;;;;;;5011352;28;20210;-76
2023/04/25 11:33:49;;;;;;;8.47;0.97;;;11.20;99.90;;;;;;5010858;28;20565;-76
2023/04/25 11:36:16;;;;;;;6.63;0.88;;;11.10;99.90;;;;;;5011368;28;20473;-75
2023/04/25 11:38:43;;;;;;;0.70;0.70;;;11.00;99.90;;;;;;5011360;28;20234;-74
2023/04/25 11:41:09;;;;;;;2.85;1.58;;;10.60;99.90;;;;;;5012068;28;20207;-75
2023/04/25 11:43:36;;;;;;;2.05;0.68;;;10.10;99.90;;;;;;5011013;28;20238;-74
2023/04/25 11:46:08;;;;;;;0.20;0.20;;;9.80;99.90;;;;;;5012462;28;20215;-75
2023/04/25 11:48:39;;;;;;;4.70;1.20;;;9.60;99.90;;;;;;5030045;28;20678;-75
2023/04/25 11:51:06;;;;;;;0.30;0.30;;;9.60;99.90;;;;;;5012113;28;20211;-75
2023/04/25 11:53:33;;;;;;;4.35;1.10;;;9.70;99.90;;;;;;5010839;28;20261;-75
2023/04/25 11:56:00;;;;;;;0.73;0.50;;;9.80;99.90;;;;;;5011790;28;20222;-75
2023/04/25 11:58:27;;;;;;;0.52;0.50;;;10.00;99.90;;;;;;5011075;28;20230;-76
2023/04/25 12:00:54;;;;;;;0.63;0.63;;;10.10;99.90;;;;;;5010999;28;20234;-75
2023/04/25 12:03:25;;;;;;;0.95;0.95;;;10.10;99.90;;;;;;5010278;28;20243;-75
2023/04/25 12:05:54;;;;;;;30.58;1.58;;;10.10;99.90;;;;;;5010762;28;20607;-77
2023/04/25 12:08:20;;;;;;;1.52;0.60;;;10.20;99.90;;;;;;5014385;28;20203;-76
2023/04/25 12:10:48;;;;;;;0.55;0.55;;;10.30;99.90;;;;;;5014616;28;20218;-76
2023/04/25 12:13:22;;;;;;;0.43;0.43;;;10.40;99.90;;;;;;5014458;28;20289;-74
2023/04/25 12:15:49;;;;;;;0.20;0.20;;;10.40;99.90;;;;;;5014459;28;20233;-76
2023/04/25 12:18:19;;;;;;;0.20;0.20;;;10.40;99.90;;;;;;5014318;28;20276;-75
2023/04/25 12:20:46;;;;;;;1.15;0.40;;;10.40;99.90;;;;;;5014336;28;20213;-76
2023/04/25 12:23:14;;;;;;;0.50;0.50;;;10.40;99.90;;;;;;5013756;28;20263;-77
2023/04/25 12:25:44;;;;;;;1.38;0.80;;;10.30;99.90;;;;;;5014183;28;20203;-77
2023/04/25 12:28:15;;;;;;;0.30;0.30;;;10.30;99.90;;;;;;5014296;28;20293;-78
2023/04/25 12:30:57;;;;;;;6.22;0.50;;;10.40;99.90;;;;;;5013890;28;20195;-76
2023/04/25 12:33:24;;;;;;;0.68;0.68;;;10.70;99.90;;;;;;5013803;28;20352;-75
2023/04/25 12:35:51;;;;;;;0.63;0.63;;;10.80;99.90;;;;;;5014785;28;20222;-75
2023/04/25 12:38:27;;;;;;;1.85;0.80;;;10.90;99.90;;;;;;5013877;28;20715;-74
2023/04/25 12:40:54;;;;;;;0.85;0.85;;;11.00;99.90;;;;;;5014253;28;20211;-74
2023/04/25 12:43:21;;;;;;;3.92;0.57;;;11.20;99.90;;;;;;5013424;28;20235;-75
2023/04/25 12:45:49;;;;;;;0.47;0.47;;;11.20;99.90;;;;;;5014727;28;20676;-75
2023/04/25 12:48:16;;;;;;;0.30;0.30;;;11.10;99.90;;;;;;5016308;28;20215;-75
2023/04/25 12:50:43;;;;;;;1.05;0.80;;;11.10;99.90;;;;;;5017181;28;20216;-75
2023/04/25 12:53:11;;;;;;;3.92;0.93;;;11.00;99.90;;;;;;5017112;28;20211;-75
2023/04/25 12:55:40;;;;;;;0.38;0.38;;;10.90;99.90;;;;;;5024968;28;20309;-75
2023/04/25 12:58:07;;;;;;;1.95;0.50;;;10.70;99.90;;;;;;5027989;28;20242;-75
2023/04/25 13:00:34;;;;;;;5.07;0.90;;;10.50;99.90;;;;;;5029454;28;20211;-75
2023/04/25 13:03:02;;;;;;;1.77;1.58;;;10.40;99.90;;;;;;5025851;28;20218;-76
2023/04/25 13:05:30;;;;;;;1.20;1.20;;;10.30;99.90;;;;;;5025497;28;20211;-75
2023/04/25 13:07:56;;;;;;;0.80;0.80;;;10.30;99.90;;;;;;5025799;28;20211;-75
2023/04/25 13:10:23;;;;;;;1.20;1.20;;;10.50;99.90;;;;;;5026839;28;20255;-75
2023/04/25 13:12:52;;;;;;;0.50;0.50;;;10.60;99.90;;;;;;5025588;28;20214;-75
2023/04/25 13:15:18;;;;;;;1.08;1.08;;;10.70;99.90;;;;;;5017095;28;20218;-76
2023/04/25 13:17:45;;;;;;;0.45;0.45;;;10.70;99.90;;;;;;5015773;28;20215;-75
2023/04/25 13:20:13;;;;;;;1.20;0.73;;;10.80;99.90;;;;;;5022069;28;20207;-75
2023/04/25 13:22:40;;;;;;;0.35;0.35;;;10.80;99.90;;;;;;5018198;28;20607;-76
2023/04/25 13:25:08;;;;;;;0.20;0.20;;;10.70;99.90;;;;;;5014901;28;20253;-75
2023/04/25 13:27:36;;;;;;;0.90;0.55;;;10.50;99.90;;;;;;5013400;28;20226;-76
2023/04/25 13:30:07;;;;;;;0.20;0.20;;;10.50;99.90;;;;;;5013063;28;20223;-75
2023/04/25 13:32:35;;;;;;;2.60;0.40;;;10.50;99.90;;;;;;5013183;28;20282;-76
2023/04/25 13:35:04;;;;;;;0.20;0.20;;;10.50;99.90;;;;;;5013149;28;20544;-75
2023/04/25 13:37:32;;;;;;;0.32;0.32;;;10.70;99.90;;;;;;5013806;28;20211;-76
2023/04/25 13:39:59;;;;;;;2.05;0.32;;;10.70;99.90;;;;;;5022463;28;20235;-75
2023/04/25 13:42:26;;;;;;;0.55;0.55;;;10.80;99.90;;;;;;5017050;28;20210;-74
2023/04/25 13:44:53;;;;;;;0.10;0.10;;;10.90;99.90;;;;;;5013133;28;20237;-75
2023/04/25 13:47:21;;;;;;;0.20;0.20;;;11.00;99.90;;;;;;5013197;28;20211;-75
2023/04/25 13:49:48;;;;;;;1.35;0.60;;;11.00;99.90;;;;;;5012981;28;20214;-75
2023/04/25 13:52:15;;;;;;;0.90;0.45;;;11.00;99.90;;;;;;5012757;28;20218;-75
2023/04/25 13:54:41;;;;;;;0.40;0.40;;;10.90;99.90;;;;;;5012362;28;20318;-75
2023/04/25 13:57:08;;;;;;;0.73;0.40;;;10.80;99.90;;;;;;5013189;28;20207;-75
2023/04/25 13:59:35;;;;;;;0.20;0.20;;;10.80;99.90;;;;;;5012702;28;20231;-75
2023/04/25 14:02:02;;;;;;;0.30;0.30;;;10.80;99.90;;;;;;5012811;28;20582;-74
2023/04/25 14:04:30;;;;;;;0.30;0.30;;;10.70;99.90;;;;;;5012271;28;20238;-75
2023/04/25 14:06:57;;;;;;;0.80;0.68;;;10.70;99.90;;;;;;5012421;28;20269;-75
2023/04/25 14:09:25;;;;;;;0.82;0.30;;;10.60;99.90;;;;;;5012557;28;20203;-75
2023/04/25 14:11:52;;;;;;;0.68;0.68;;;10.60;99.90;;;;;;5013086;28;20203;-74
2023/04/25 14:14:19;;;;;;;0.20;0.20;;;10.70;99.90;;;;;;5012221;28;20254;-75
2023/04/25 14:16:47;;;;;;;0.60;0.60;;;10.80;99.90;;;;;;5012908;28;20222;-75
2023/04/25 14:19:14;;;;;;;0.70;0.70;;;10.90;99.90;;;;;;5013292;28;20227;-74
2023/04/25 14:21:42;;;;;;;0.50;0.50;;;11.00;99.90;;;;;;5012495;28;20211;-73
2023/04/25 14:24:10;;;;;;;0.47;0.47;;;11.00;99.90;;;;;;5011893;28;20231;-74
2023/04/25 14:26:37;;;;;;;1.08;1.08;;;10.90;99.90;;;;;;5012473;28;20214;-74
2023/04/25 14:29:04;;;;;;;0.57;0.57;;;10.60;99.90;;;;;;5011626;28;20226;-74
2023/04/25 14:31:31;;;;;;;5.35;1.00;;;10.50;99.90;;;;;;5011769;28;20199;-73
2023/04/25 14:33:58;;;;;;;0.60;0.60;;;10.20;99.90;;;;;;5011607;28;20231;-73
2023/04/25 14:36:26;;;;;;;2.92;0.90;;;10.00;99.90;;;;;;5011634;28;20210;-74
2023/04/25 14:38:54;;;;;;;1.85;1.42;;;9.80;99.90;;;;;;5011520;28;20227;-75
2023/04/25 14:41:21;;;;;;;0.90;0.90;;;9.70;99.90;;;;;;5012008;28;20217;-74
2023/04/25 14:43:47;;;;;;;0.68;0.68;;;9.70;99.90;;;;;;5011607;28;20233;-74
2023/04/25 14:46:14;;;;;;;2.80;1.45;;;9.60;99.90;;;;;;5011902;28;20214;-75
2023/04/25 14:48:41;;;;;;;4.93;0.45;;;9.70;99.90;;;;;;5012353;28;20233;-74
2023/04/25 14:51:08;;;;;;;0.63;0.63;;;9.70;99.90;;;;;;5011433;28;20207;-74
2023/04/25 14:53:35;;;;;;;4.40;1.15;;;9.70;99.90;;;;;;5011435;28;20247;-75
2023/04/25 14:56:03;;;;;;;0.82;0.52;;;9.80;99.90;;;;;;5012040;28;20207;-73
2023/04/25 14:58:30;;;;;;;1.40;1.30;;;9.80;99.90;;;;;;5011506;28;20214;-75
2023/04/25 15:00:57;;;;;;;0.60;0.60;;;9.90;99.90;;;;;;5011576;28;20577;-74
2023/04/25 15:03:24;;;;;;;8.70;1.65;;;9.90;99.90;;;;;;5010856;28;20227;-73
2023/04/25 15:05:50;;;;;;;1.15;1.15;;;9.90;99.90;;;;;;5011590;28;20588;-72
2023/04/25 15:08:17;;;;;;;2.67;0.57;;;10.00;99.90;;;;;;5010842;28;20207;-75
2023/04/25 15:10:45;;;;;;;0.75;0.75;;;9.90;99.90;;;;;;5011479;28;20257;-75
2023/04/25 15:13:13;;;;;;;6.07;1.35;;;9.90;99.90;;;;;;5011701;28;20217;-75
2023/04/25 15:15:40;;;;;;;0.40;0.40;;;9.90;99.90;;;;;;5012003;28;20326;-75
2023/04/25 15:18:06;;;;;;;0.45;0.38;;;9.90;99.90;;;;;;5011875;28;20314;-75
2023/04/25 15:20:33;;;;;;;4.60;0.80;;;9.90;99.90;;;;;;5011821;28;20249;-76
2023/04/25 15:23:03;;;;;;;0.63;0.63;;;9.90;99.90;;;;;;5011413;28;20576;-75
2023/04/25 15:25:29;;;;;;;0.75;0.73;;;10.00;99.90;;;;;;5010937;28;20297;-73
2023/04/25 15:27:56;;;;;;;0.20;0.20;;;10.00;99.90;;;;;;5011023;28;20222;-75
2023/04/25 15:30:24;;;;;;;0.63;0.63;;;10.00;99.90;;;;;;5010934;28;20199;-75
2023/04/25 15:32:51;;;;;;;0.90;0.90;;;10.00;99.90;;;;;;5011270;28;20551;-74
2023/04/25 15:35:18;;;;;;;0.30;0.30;;;10.10;99.90;;;;;;5010660;28;20242;-75
2023/04/25 15:37:45;;;;;;;1.30;1.20;;;10.00;99.90;;;;;;5010166;28;20214;-74
2023/04/25 15:40:14;;;;;;;0.73;0.60;;;10.00;99.90;;;;;;5010775;28;20222;-75
2023/04/25 15:42:43;;;;;;;0.95;0.43;;;9.90;99.90;;;;;;5010524;28;20211;-75
2023/04/25 15:45:11;;;;;;;0.80;0.80;;;9.70;99.90;;;;;;5010513;28;20226;-75
2023/04/25 15:47:40;;;;;;;2.05;1.88;;;9.70;99.90;;;;;;5011201;28;20667;-75
2023/04/25 15:50:09;;;;;;;0.60;0.60;;;9.80;99.90;;;;;;5011057;28;20293;-74
2023/04/25 15:52:36;;;;;;;1.95;1.85;;;9.80;99.90;;;;;;5010101;28;20584;-74
2023/04/25 15:55:04;;;;;;;1.70;1.60;;;9.80;99.90;;;;;;5009986;28;20310;-76
2023/04/25 15:57:32;;;;;;;8.27;2.25;;;9.70;99.90;;;;;;5010526;28;20212;-75
2023/04/25 15:59:59;;;;;;;0.75;0.65;;;9.80;99.90;;;;;;5011127;28;20222;-76
2023/04/25 16:02:26;;;;;;;0.50;0.50;;;9.90;99.90;;;;;;5011509;28;20211;-76
2023/04/25 16:04:54;;;;;;;4.78;0.50;;;9.90;99.90;;;;;;5010599;28;20289;-76
2023/04/25 16:07:21;;;;;;;0.80;0.80;;;9.90;99.90;;;;;;5010944;28;20316;-76
2023/04/25 16:09:48;;;;;;;0.30;0.30;;;10.00;99.90;;;;;;5010686;28;20308;-76
2023/04/25 16:12:15;;;;;;;0.50;0.50;;;10.10;99.90;;;;;;5011483;28;20207;-75
2023/04/25 16:14:42;;;;;;;1.98;1.27;;;10.10;99.90;;;;;;5034407;23;20235;-71
2023/04/25 16:17:09;;;;;;;2.00;1.17;;;10.20;99.90;;;;;;5012539;28;20211;-72
2023/04/25 16:19:36;;;;;;;1.73;0.60;;;10.20;99.90;;;;;;5013441;28;20258;-72
2023/04/25 16:22:04;;;;;;;3.20;1.10;;;10.30;99.90;;;;;;5015643;28;20285;-74
2023/04/25 16:24:31;;;;;;;0.35;0.35;;;10.20;99.90;;;;;;5012783;28;20233;-73
2023/04/25 16:26:58;;;;;;;0.77;0.77;;;10.20;99.90;;;;;;5013276;28;20219;-73
2023/04/25 16:29:24;;;;;;;0.30;0.30;;;10.10;99.90;;;;;;5014340;28;20203;-73
2023/04/25 16:31:51;;;;;;;0.95;0.95;;;10.00;99.90;;;;;;5014930;28;20234;-72
2023/04/25 16:34:18;;;;;;;1.45;1.40;;;10.00;99.90;;;;;;5016634;28;20251;-73
2023/04/25 16:36:45;;;;;;;0.20;0.20;;;9.80;99.90;;;;;;5017119;28;20365;-74
2023/04/25 16:39:13;;;;;;;3.55;0.35;;;9.70;99.90;;;;;;5013627;28;20639;-72
2023/04/25 16:41:40;;;;;;;1.00;0.30;;;9.60;99.90;;;;;;5016284;28;20211;-72
2023/04/25 16:44:08;;;;;;;0.30;0.30;;;9.50;99.90;;;;;;5016966;28;20231;-73
2023/04/25 16:46:34;;;;;;;0.20;0.20;;;9.40;99.90;;;;;;5016012;28;20352;-73
2023/04/25 16:49:01;;;;;;;0.50;0.50;;;9.20;99.90;;;;;;5014582;28;20211;-72
2023/04/25 16:51:28;;;;;;;0.40;0.40;;;9.00;99.90;;;;;;5013244;28;20522;-74
2023/04/25 16:53:55;;;;;;;0.50;0.50;;;8.80;99.90;;;;;;5018414;28;20580;-72
2023/04/25 16:56:23;;;;;;;0.95;0.60;;;8.80;99.90;;;;;;5020586;28;20204;-72